Time;durP1;ratioP1;P1;durP2;ratioP2;P2;SDS_P1;SDS_P2;PMS_P1;PMS_P2;Temp;Humidity;BMP_temperature;BMP_pressure;BME280_temperature;BME280_humidity;BME280_pressure;Samples;Min_cycle;Max_cycle;Signal;HPM_P1;HPM_P2
2022/04/28 00:00:09;;;;;;;9.67;7.70;;;9.70;99.90;;;;;;5100442;28;20558;-86
2022/04/28 00:02:36;;;;;;;10.53;7.87;;;9.70;99.90;;;;;;5100460;28;20953;-89
2022/04/28 00:05:04;;;;;;;9.32;7.20;;;9.80;99.90;;;;;;5102935;28;20455;-88
2022/04/28 00:07:32;;;;;;;8.77;7.00;;;9.80;99.90;;;;;;5106049;28;20232;-88
2022/04/28 00:09:59;;;;;;;12.77;8.90;;;9.80;99.90;;;;;;5110206;28;20485;-88
2022/04/28 00:12:26;;;;;;;10.90;8.03;;;9.80;99.90;;;;;;5116327;28;20430;-89
2022/04/28 00:14:53;;;;;;;11.90;7.60;;;9.80;99.90;;;;;;5105816;28;20461;-88
2022/04/28 00:17:20;;;;;;;10.37;8.20;;;9.80;99.90;;;;;;5101683;28;20429;-88
2022/04/28 00:19:46;;;;;;;11.05;7.28;;;9.70;99.90;;;;;;5099855;28;20574;-88
2022/04/28 00:22:14;;;;;;;9.77;7.20;;;9.70;99.90;;;;;;5102645;28;20239;-89
2022/04/28 00:24:42;;;;;;;9.80;7.90;;;9.70;99.90;;;;;;5102896;28;20458;-88
2022/04/28 00:27:09;;;;;;;9.30;7.90;;;9.70;99.90;;;;;;5107155;28;20490;-90
2022/04/28 00:29:36;;;;;;;10.97;6.67;;;9.60;99.90;;;;;;5106823;28;20453;-88
2022/04/28 00:32:03;;;;;;;10.25;7.75;;;9.50;99.90;;;;;;5110208;28;20447;-88
2022/04/28 00:34:29;;;;;;;10.13;7.90;;;9.40;99.90;;;;;;5114422;28;20224;-88
2022/04/28 00:36:56;;;;;;;9.70;7.13;;;9.50;99.90;;;;;;5106666;28;20477;-88
2022/04/28 00:39:23;;;;;;;9.90;7.57;;;9.40;99.90;;;;;;5104590;28;20547;-89
2022/04/28 00:41:51;;;;;;;10.57;8.50;;;9.40;99.90;;;;;;5107508;28;20511;-89
2022/04/28 00:44:18;;;;;;;9.20;7.53;;;9.30;99.90;;;;;;5117471;28;20447;-86
2022/04/28 00:46:45;;;;;;;9.43;7.82;;;9.30;99.90;;;;;;5117631;28;20435;-89
2022/04/28 00:51:59;;;;;;;9.70;7.23;;;9.30;99.90;;;;;;5116956;28;20418;-87
2022/04/28 00:54:27;;;;;;;12.40;8.93;;;9.20;99.90;;;;;;5114727;28;20438;-86
2022/04/28 00:57:19;;;;;;;9.00;7.23;;;9.20;99.90;;;;;;5113705;28;20462;-88
2022/04/28 00:59:48;;;;;;;8.70;7.30;;;9.20;99.90;;;;;;5109000;28;20974;-89
2022/04/28 01:02:16;;;;;;;8.37;7.30;;;9.30;99.90;;;;;;5106942;28;20466;-90
2022/04/28 01:04:43;;;;;;;8.55;7.00;;;9.20;99.90;;;;;;5106951;28;20490;-88
2022/04/28 01:07:11;;;;;;;9.88;7.90;;;9.20;99.90;;;;;;5116139;28;20223;-89
2022/04/28 01:09:38;;;;;;;12.77;7.60;;;9.10;99.90;;;;;;5111845;28;20211;-88
2022/04/28 01:12:14;;;;;;;9.50;7.28;;;9.10;99.90;;;;;;5115468;28;20423;-88
2022/04/28 01:14:42;;;;;;;10.17;8.40;;;9.20;99.90;;;;;;5105799;28;20199;-89
2022/04/28 01:17:09;;;;;;;9.53;7.80;;;9.20;99.90;;;;;;5108275;28;20454;-87
2022/04/28 01:19:36;;;;;;;9.23;7.23;;;9.20;99.90;;;;;;5117381;28;20510;-87
2022/04/28 01:22:05;;;;;;;9.73;7.05;;;9.00;99.90;;;;;;5109406;28;20458;-90
2022/04/28 01:24:32;;;;;;;8.57;7.40;;;9.00;99.90;;;;;;5108466;28;20669;-89
2022/04/28 01:27:01;;;;;;;9.50;7.38;;;9.00;99.90;;;;;;5108835;28;20212;-90
2022/04/28 01:29:31;;;;;;;10.88;8.52;;;8.90;99.90;;;;;;5109679;28;20212;-89
2022/04/28 01:31:58;;;;;;;17.38;7.90;;;8.80;99.90;;;;;;5108971;28;20220;-89
2022/04/28 01:34:25;;;;;;;10.40;7.32;;;8.80;99.90;;;;;;5108011;28;20283;-89
2022/04/28 01:36:52;;;;;;;8.68;7.40;;;8.90;99.90;;;;;;5107800;28;20201;-89
2022/04/28 01:39:20;;;;;;;10.32;7.25;;;8.90;99.90;;;;;;5107929;28;20236;-86
2022/04/28 01:41:48;;;;;;;12.50;7.50;;;8.90;99.90;;;;;;5105747;28;20269;-86
2022/04/28 01:44:15;;;;;;;11.25;7.40;;;8.90;99.90;;;;;;5111975;28;20681;-88
2022/04/28 01:46:42;;;;;;;8.83;7.13;;;8.80;99.90;;;;;;5110719;28;20220;-87
2022/04/28 01:49:09;;;;;;;9.70;7.68;;;8.90;99.90;;;;;;5104824;28;20458;-87
2022/04/28 01:57:06;;;;;;;10.02;7.00;;;8.80;99.90;;;;;;5113602;28;20643;-89
2022/04/28 01:59:33;;;;;;;9.67;7.50;;;8.90;99.90;;;;;;5110033;28;20752;-89
2022/04/28 02:02:00;;;;;;;8.25;6.80;;;8.80;99.90;;;;;;5115170;28;20464;-88
2022/04/28 02:04:27;;;;;;;10.57;7.30;;;8.80;99.90;;;;;;5112839;28;20577;-89
2022/04/28 02:06:53;;;;;;;11.70;7.00;;;8.80;99.90;;;;;;5108743;28;20477;-89
2022/04/28 02:09:22;;;;;;;8.98;7.72;;;8.70;99.90;;;;;;5108423;28;20256;-89
2022/04/28 02:11:48;;;;;;;9.38;7.15;;;8.70;99.90;;;;;;5107700;28;20292;-89
2022/04/28 02:14:15;;;;;;;8.90;7.10;;;8.70;99.90;;;;;;5107839;28;20231;-89
2022/04/28 02:16:42;;;;;;;13.85;7.78;;;8.70;99.90;;;;;;5107748;28;20446;-89
2022/04/28 02:19:09;;;;;;;9.07;7.35;;;8.70;99.90;;;;;;5113536;28;20212;-89
2022/04/28 02:21:36;;;;;;;9.02;7.25;;;8.60;99.90;;;;;;5125498;22;20217;-85
2022/04/28 02:24:03;;;;;;;14.70;7.93;;;8.60;99.90;;;;;;5089405;28;20285;-85
2022/04/28 02:26:31;;;;;;;10.77;7.50;;;8.50;99.90;;;;;;5087446;28;20198;-85
2022/04/28 02:28:58;;;;;;;10.77;7.50;;;8.50;99.90;;;;;;5085740;28;20269;-85
2022/04/28 02:31:28;;;;;;;10.07;6.82;;;8.40;99.90;;;;;;5090652;28;20225;-86
2022/04/28 02:33:55;;;;;;;13.65;7.70;;;8.40;99.90;;;;;;5106608;28;20650;-86
2022/04/28 02:36:24;;;;;;;11.48;7.20;;;8.40;99.90;;;;;;5105221;28;20197;-86
2022/04/28 02:38:51;;;;;;;10.18;7.35;;;8.40;99.90;;;;;;5104562;28;20205;-86
2022/04/28 02:41:21;;;;;;;11.87;7.07;;;8.40;99.90;;;;;;5105542;28;20308;-86
2022/04/28 02:43:53;;;;;;;9.23;7.22;;;8.30;99.90;;;;;;5104916;28;20454;-86
2022/04/28 02:46:20;;;;;;;10.48;7.80;;;8.20;99.90;;;;;;5105761;28;20544;-85
2022/04/28 02:48:49;;;;;;;9.55;7.65;;;8.30;99.90;;;;;;5107232;28;20650;-85
2022/04/28 02:51:16;;;;;;;10.65;7.00;;;8.20;99.90;;;;;;5108203;28;20225;-85
2022/04/28 02:53:43;;;;;;;9.85;7.30;;;8.20;99.90;;;;;;5104469;28;20285;-85
2022/04/28 02:56:10;;;;;;;10.45;7.32;;;8.20;99.90;;;;;;5104100;28;20232;-85
2022/04/28 02:58:37;;;;;;;9.70;7.30;;;8.30;99.90;;;;;;5102759;28;20232;-85
2022/04/28 03:01:06;;;;;;;10.43;7.95;;;8.30;99.90;;;;;;5103291;28;20307;-86
2022/04/28 03:03:33;;;;;;;9.70;7.50;;;8.20;99.90;;;;;;5115771;28;20197;-84
2022/04/28 03:11:29;;;;;;;10.35;7.57;;;8.30;99.90;;;;;;5101994;28;20219;-85
2022/04/28 03:13:56;;;;;;;9.07;6.95;;;8.20;99.90;;;;;;5103055;28;20545;-85
2022/04/28 03:16:25;;;;;;;10.38;7.57;;;8.10;99.90;;;;;;5102220;28;20665;-84
2022/04/28 03:18:52;;;;;;;9.00;6.97;;;8.10;99.90;;;;;;5107054;28;20215;-85
2022/04/28 03:21:19;;;;;;;8.85;6.53;;;8.10;99.90;;;;;;5114473;28;20252;-85
2022/04/28 03:23:46;;;;;;;9.23;7.05;;;8.10;99.90;;;;;;5107830;28;20208;-85
2022/04/28 03:26:13;;;;;;;9.63;7.22;;;8.00;99.90;;;;;;5103055;28;20215;-86
2022/04/28 03:28:40;;;;;;;10.25;7.25;;;8.00;99.90;;;;;;5102549;28;20212;-85
2022/04/28 03:31:08;;;;;;;9.70;7.30;;;8.00;99.90;;;;;;5102487;28;20201;-85
2022/04/28 03:33:36;;;;;;;10.77;7.30;;;7.90;99.90;;;;;;5101375;28;20207;-85
2022/04/28 03:36:50;;;;;;;9.40;6.97;;;7.90;99.90;;;;;;5102449;28;20276;-85
2022/04/28 03:38:51;;;;;;;9.80;7.50;;;7.90;99.90;;;;;;5101117;28;20677;-85
2022/04/28 03:41:18;;;;;;;11.00;7.88;;;7.90;99.90;;;;;;5101290;28;20248;-85
2022/04/28 03:43:45;;;;;;;12.02;7.72;;;7.90;99.90;;;;;;5101399;28;20209;-84
2022/04/28 03:46:12;;;;;;;16.15;8.00;;;7.90;99.90;;;;;;5101535;28;20209;-85
2022/04/28 03:48:40;;;;;;;10.00;8.02;;;7.80;99.90;;;;;;5100706;28;20222;-86
2022/04/28 03:51:07;;;;;;;8.80;6.82;;;7.90;99.90;;;;;;5100216;28;20228;-86
2022/04/28 03:53:34;;;;;;;10.85;8.10;;;7.90;99.90;;;;;;5100747;28;20232;-86
2022/04/28 03:56:02;;;;;;;10.70;7.93;;;7.90;99.90;;;;;;5101902;28;20311;-84
2022/04/28 03:58:28;;;;;;;11.55;8.15;;;7.80;99.90;;;;;;5101796;28;20224;-87
2022/04/28 04:00:55;;;;;;;9.65;7.30;;;7.80;99.90;;;;;;5102256;28;20223;-86
2022/04/28 04:03:22;;;;;;;10.93;8.43;;;7.80;99.90;;;;;;5103525;28;20219;-85
2022/04/28 04:05:51;;;;;;;10.95;8.20;;;7.80;99.90;;;;;;5103382;28;20212;-86
2022/04/28 04:08:18;;;;;;;12.60;8.32;;;7.70;99.90;;;;;;5105751;28;20204;-85
2022/04/28 04:10:45;;;;;;;10.57;7.82;;;7.70;99.90;;;;;;5109525;28;20204;-85
2022/04/28 04:13:12;;;;;;;11.93;8.63;;;7.70;99.90;;;;;;5107898;28;20599;-85
2022/04/28 04:15:38;;;;;;;11.77;8.63;;;7.60;99.90;;;;;;5116403;28;20231;-84
2022/04/28 04:18:05;;;;;;;10.63;8.13;;;7.60;99.90;;;;;;5107604;28;20264;-85
2022/04/28 04:20:32;;;;;;;10.77;7.80;;;7.60;99.90;;;;;;5114006;28;20220;-87
2022/04/28 04:23:05;;;;;;;11.13;8.05;;;7.60;99.90;;;;;;5101829;28;20239;-86
2022/04/28 04:25:32;;;;;;;12.15;8.70;;;7.60;99.90;;;;;;5101911;28;20196;-86
2022/04/28 04:27:59;;;;;;;12.23;8.68;;;7.50;99.90;;;;;;5101741;28;20211;-85
2022/04/28 04:33:11;;;;;;;15.57;8.98;;;7.50;99.90;;;;;;5096560;28;20215;-85
2022/04/28 04:35:37;;;;;;;13.20;9.48;;;7.40;99.90;;;;;;5104178;28;20197;-85
2022/04/28 04:38:06;;;;;;;13.68;9.30;;;7.40;99.90;;;;;;5104423;28;20273;-85
2022/04/28 04:40:33;;;;;;;14.60;9.70;;;7.30;99.90;;;;;;5108152;28;20248;-85
2022/04/28 04:43:00;;;;;;;15.93;8.50;;;7.40;99.90;;;;;;5114418;28;20233;-85
2022/04/28 04:45:28;;;;;;;12.25;9.30;;;7.40;99.90;;;;;;5114796;28;20216;-86
2022/04/28 04:47:55;;;;;;;11.10;8.48;;;7.50;99.90;;;;;;5112594;28;20260;-85
2022/04/28 04:50:22;;;;;;;13.23;9.13;;;7.50;99.90;;;;;;5112566;28;20239;-85
2022/04/28 04:52:49;;;;;;;12.95;9.02;;;7.60;99.90;;;;;;5107006;28;20228;-85
2022/04/28 04:55:17;;;;;;;11.65;8.45;;;7.60;99.90;;;;;;5103416;28;20211;-85
2022/04/28 04:57:44;;;;;;;11.63;8.35;;;7.60;99.90;;;;;;5101888;28;20288;-85
2022/04/28 05:00:12;;;;;;;10.60;8.38;;;7.60;99.90;;;;;;5106770;28;20201;-85
2022/04/28 05:02:39;;;;;;;11.15;8.55;;;7.60;99.90;;;;;;5107462;28;20301;-85
2022/04/28 05:05:07;;;;;;;12.98;8.32;;;7.70;99.90;;;;;;5111107;28;20339;-85
2022/04/28 05:07:33;;;;;;;11.10;8.10;;;7.70;99.90;;;;;;5107024;28;20208;-86
2022/04/28 05:10:00;;;;;;;11.82;8.30;;;7.80;99.90;;;;;;5105777;28;20232;-85
2022/04/28 05:12:29;;;;;;;17.77;10.27;;;7.80;99.90;;;;;;5104743;28;20252;-85
2022/04/28 05:14:55;;;;;;;12.63;8.88;;;7.80;99.90;;;;;;5105217;28;20208;-85
2022/04/28 05:17:24;;;;;;;12.77;8.77;;;7.80;99.90;;;;;;5105981;28;20731;-85
2022/04/28 05:19:50;;;;;;;12.35;9.77;;;7.80;99.90;;;;;;5117416;28;20200;-85
2022/04/28 05:22:17;;;;;;;13.85;9.68;;;7.90;99.90;;;;;;5112555;28;20282;-85
2022/04/28 05:24:44;;;;;;;14.40;9.95;;;7.90;99.90;;;;;;5104549;28;20204;-86
2022/04/28 05:27:11;;;;;;;12.65;8.75;;;8.00;99.90;;;;;;5104718;28;20201;-85
2022/04/28 05:29:39;;;;;;;12.00;8.88;;;8.00;99.90;;;;;;5108705;28;20265;-84
2022/04/28 05:32:07;;;;;;;11.70;10.18;;;8.00;99.90;;;;;;5105801;28;20292;-87
2022/04/28 05:34:33;;;;;;;13.90;9.25;;;8.10;99.90;;;;;;5103993;28;20300;-85
2022/04/28 05:37:01;;;;;;;11.45;9.05;;;8.30;99.90;;;;;;5103164;28;20303;-86
2022/04/28 05:39:29;;;;;;;15.95;11.05;;;8.40;99.90;;;;;;5103718;28;20211;-85
2022/04/28 05:41:57;;;;;;;14.00;10.77;;;8.40;99.90;;;;;;5102531;28;20233;-85
2022/04/28 05:47:10;;;;;;;14.25;10.40;;;8.60;99.90;;;;;;5103346;28;20200;-85
2022/04/28 05:49:38;;;;;;;14.00;9.43;;;8.60;99.90;;;;;;5103033;28;20219;-85
2022/04/28 05:52:05;;;;;;;13.13;10.00;;;8.60;99.90;;;;;;5103628;28;20220;-86
2022/04/28 05:54:32;;;;;;;15.48;10.20;;;8.70;99.90;;;;;;5112431;28;20273;-85
2022/04/28 05:56:59;;;;;;;12.50;10.77;;;8.80;99.90;;;;;;5114081;28;20204;-85
2022/04/28 05:59:30;;;;;;;16.73;11.37;;;8.90;99.90;;;;;;5112959;28;20205;-86
2022/04/28 06:01:58;;;;;;;14.50;11.23;;;9.00;99.90;;;;;;5114732;28;20516;-86
2022/04/28 06:04:32;;;;;;;14.85;11.00;;;9.00;99.90;;;;;;5114606;28;20239;-87
2022/04/28 06:06:59;;;;;;;18.05;11.55;;;9.10;99.90;;;;;;5114883;28;20188;-87
2022/04/28 06:09:26;;;;;;;15.90;12.43;;;9.10;99.90;;;;;;5114365;28;20222;-87
2022/04/28 06:11:53;;;;;;;13.93;10.98;;;9.20;99.90;;;;;;5117764;28;20475;-85
2022/04/28 06:14:20;;;;;;;19.10;13.23;;;9.30;99.90;;;;;;5117232;28;20211;-87
2022/04/28 06:16:47;;;;;;;14.37;11.90;;;9.50;99.90;;;;;;5110369;28;20848;-87
2022/04/28 06:19:13;;;;;;;17.73;12.63;;;9.60;99.90;;;;;;5113664;28;20451;-86
2022/04/28 06:21:42;;;;;;;15.60;11.70;;;9.70;99.90;;;;;;5107110;28;20510;-86
2022/04/28 06:24:09;;;;;;;17.17;11.43;;;9.80;99.90;;;;;;5104796;28;20490;-86
2022/04/28 06:26:39;;;;;;;15.50;12.10;;;10.00;99.90;;;;;;5109915;28;20454;-87
2022/04/28 06:29:06;;;;;;;18.00;12.90;;;10.10;99.90;;;;;;5104333;28;20526;-85
2022/04/28 06:31:33;;;;;;;18.67;11.83;;;10.20;99.90;;;;;;5104361;28;20471;-85
2022/04/28 06:33:59;;;;;;;14.70;11.33;;;10.40;99.90;;;;;;5104240;28;20971;-85
2022/04/28 06:36:26;;;;;;;13.43;11.60;;;10.60;99.90;;;;;;5103820;28;20806;-86
2022/04/28 06:38:55;;;;;;;17.30;12.33;;;10.70;99.90;;;;;;5102613;28;20489;-86
2022/04/28 06:41:22;;;;;;;18.20;13.30;;;10.70;99.90;;;;;;5105537;28;20486;-85
2022/04/28 06:43:49;;;;;;;18.90;11.43;;;10.80;99.90;;;;;;5115086;28;20427;-86
2022/04/28 06:46:16;;;;;;;17.73;12.73;;;11.00;99.90;;;;;;5105091;28;20443;-86
2022/04/28 06:48:43;;;;;;;17.67;11.87;;;11.00;99.90;;;;;;5106364;28;20410;-85
2022/04/28 06:51:09;;;;;;;17.70;12.07;;;11.10;99.90;;;;;;5108253;28;20566;-85
2022/04/28 06:53:39;;;;;;;15.30;12.17;;;11.10;99.90;;;;;;5104233;28;20425;-85
2022/04/28 06:56:10;;;;;;;14.93;10.30;;;11.20;99.90;;;;;;5104130;28;20443;-85
2022/04/28 06:58:37;;;;;;;16.03;9.77;;;11.40;99.90;;;;;;5107361;28;20414;-86
2022/04/28 07:01:05;;;;;;;19.17;10.37;;;11.40;99.90;;;;;;5106911;28;20439;-85
2022/04/28 07:03:33;;;;;;;18.60;10.93;;;11.30;99.90;;;;;;5109906;28;20446;-87
2022/04/28 07:06:01;;;;;;;19.83;10.40;;;11.50;99.90;;;;;;5109700;28;20634;-85
2022/04/28 07:08:28;;;;;;;14.17;9.83;;;11.50;99.90;;;;;;5110947;28;20457;-87
2022/04/28 07:10:55;;;;;;;12.70;10.03;;;11.50;99.90;;;;;;5103200;28;20866;-88
2022/04/28 07:13:23;;;;;;;11.40;8.23;;;11.50;99.90;;;;;;5103668;28;20466;-86
2022/04/28 07:15:50;;;;;;;18.93;10.57;;;11.60;99.90;;;;;;5101401;28;20506;-86
2022/04/28 07:18:17;;;;;;;11.97;9.90;;;11.60;99.90;;;;;;5102036;28;20424;-86
2022/04/28 07:20:45;;;;;;;13.20;8.90;;;11.70;99.90;;;;;;5108152;28;20922;-87
2022/04/28 07:23:12;;;;;;;20.50;10.37;;;11.90;99.90;;;;;;5115498;28;20477;-87
2022/04/28 07:25:39;;;;;;;14.13;9.40;;;12.00;99.90;;;;;;5115527;28;20460;-86
2022/04/28 07:28:07;;;;;;;11.67;9.10;;;12.10;99.90;;;;;;5104391;28;20461;-86
2022/04/28 07:30:35;;;;;;;13.43;9.73;;;12.20;99.90;;;;;;5104792;28;20943;-86
2022/04/28 07:33:03;;;;;;;14.17;9.93;;;12.40;99.90;;;;;;5103629;28;20459;-86
2022/04/28 07:35:31;;;;;;;12.00;8.97;;;12.50;99.90;;;;;;5102549;28;20417;-86
2022/04/28 07:37:58;;;;;;;15.37;10.57;;;12.70;99.90;;;;;;5103108;28;20441;-86
2022/04/28 07:40:25;;;;;;;14.23;10.30;;;12.80;99.90;;;;;;5106269;28;20484;-86
2022/04/28 07:42:52;;;;;;;11.13;8.93;;;12.90;99.90;;;;;;5103637;28;20492;-85
2022/04/28 07:45:19;;;;;;;13.10;9.80;;;13.00;99.90;;;;;;5103162;28;20545;-87
2022/04/28 07:47:47;;;;;;;13.43;9.80;;;13.10;99.90;;;;;;5103232;28;20447;-86
2022/04/28 07:50:14;;;;;;;15.90;10.20;;;13.20;99.90;;;;;;5105041;28;20452;-85
2022/04/28 07:52:42;;;;;;;11.30;9.13;;;13.30;99.90;;;;;;5107361;28;20486;-85
2022/04/28 07:55:09;;;;;;;12.80;8.20;;;13.40;99.90;;;;;;5110287;28;20405;-85
2022/04/28 07:57:37;;;;;;;14.43;9.07;;;13.50;99.90;;;;;;5114437;28;20450;-85
2022/04/28 08:00:05;;;;;;;9.27;7.97;;;13.60;99.90;;;;;;5112611;28;20475;-85
2022/04/28 08:02:33;;;;;;;14.53;8.40;;;13.80;99.90;;;;;;5102946;28;20453;-85
2022/04/28 08:05:01;;;;;;;11.47;8.03;;;13.90;99.90;;;;;;5104773;28;20423;-86
2022/04/28 08:07:28;;;;;;;13.83;8.10;;;14.00;99.90;;;;;;5105237;28;20447;-85
2022/04/28 08:09:55;;;;;;;10.43;8.70;;;14.10;99.90;;;;;;5105332;28;20433;-86
2022/04/28 08:12:22;;;;;;;12.87;8.90;;;14.20;99.90;;;;;;5111601;28;20466;-86
2022/04/28 08:14:49;;;;;;;11.80;7.77;;;14.20;99.90;;;;;;5116565;28;20398;-85
2022/04/28 08:17:16;;;;;;;12.20;8.40;;;14.10;99.90;;;;;;5116267;28;20441;-85
2022/04/28 08:19:44;;;;;;;9.93;7.93;;;14.20;99.90;;;;;;5110787;28;20431;-85
2022/04/28 08:22:12;;;;;;;10.93;8.10;;;14.10;99.90;;;;;;5104890;28;20468;-85
2022/04/28 08:24:39;;;;;;;9.70;7.20;;;14.30;99.90;;;;;;5104933;28;20784;-85
2022/04/28 08:27:06;;;;;;;9.37;6.73;;;14.30;99.90;;;;;;5107161;28;20418;-86
2022/04/28 08:29:36;;;;;;;13.40;6.40;;;14.40;99.90;;;;;;5104456;28;20526;-85
2022/04/28 08:32:04;;;;;;;9.27;6.57;;;14.40;99.90;;;;;;5100164;28;20574;-85
2022/04/28 08:34:31;;;;;;;12.63;6.70;;;14.40;99.90;;;;;;5102496;28;20497;-85
2022/04/28 08:37:05;;;;;;;10.73;7.30;;;14.50;99.90;;;;;;5106053;28;20475;-86
2022/04/28 08:39:34;;;;;;;8.93;7.37;;;14.70;99.90;;;;;;5104897;28;20797;-85
2022/04/28 08:42:01;;;;;;;7.90;6.20;;;14.90;99.90;;;;;;5103226;28;20545;-85
2022/04/28 08:44:29;;;;;;;8.07;6.23;;;15.00;99.90;;;;;;5104966;28;20490;-85
2022/04/28 08:46:58;;;;;;;7.87;5.50;;;15.10;99.70;;;;;;5105779;28;20530;-86
2022/04/28 08:49:27;;;;;;;8.40;6.07;;;15.20;99.20;;;;;;5106358;28;20455;-86
2022/04/28 08:51:56;;;;;;;10.07;6.07;;;15.40;99.20;;;;;;5105509;28;20543;-85
2022/04/28 08:54:24;;;;;;;9.47;5.63;;;15.50;98.90;;;;;;5105167;28;20434;-85
2022/04/28 08:56:56;;;;;;;9.23;5.40;;;15.60;97.60;;;;;;5104137;28;20499;-86
2022/04/28 08:59:24;;;;;;;6.77;4.57;;;15.70;97.60;;;;;;5106104;28;20439;-85
2022/04/28 09:01:52;;;;;;;7.77;5.40;;;15.80;97.60;;;;;;5110821;28;20462;-86
2022/04/28 09:04:21;;;;;;;10.17;6.10;;;15.90;97.20;;;;;;5109439;28;20439;-86
2022/04/28 09:06:51;;;;;;;8.10;5.63;;;15.80;97.50;;;;;;5105341;28;20475;-85
2022/04/28 09:09:19;;;;;;;7.57;5.40;;;15.90;97.10;;;;;;5106786;28;20890;-85
2022/04/28 09:11:50;;;;;;;7.20;5.30;;;16.00;97.00;;;;;;5111268;28;20455;-85
2022/04/28 09:14:20;;;;;;;8.60;5.40;;;16.00;95.80;;;;;;5108535;28;20414;-87
2022/04/28 09:16:49;;;;;;;7.50;5.80;;;16.00;96.00;;;;;;5105533;28;20409;-86
2022/04/28 09:19:19;;;;;;;10.80;6.27;;;16.10;96.00;;;;;;5101278;28;20961;-86
2022/04/28 09:21:47;;;;;;;8.23;5.40;;;16.00;95.20;;;;;;5102110;28;20456;-86
2022/04/28 09:24:15;;;;;;;8.93;6.60;;;15.90;94.60;;;;;;5103068;28;20451;-86
2022/04/28 09:26:42;;;;;;;6.90;4.50;;;16.00;95.10;;;;;;5107392;28;20439;-85
2022/04/28 09:29:13;;;;;;;6.53;3.87;;;15.90;93.20;;;;;;5118072;28;20477;-88
2022/04/28 09:31:46;;;;;;;10.33;5.03;;;15.90;92.40;;;;;;5120445;28;20470;-90
2022/04/28 09:34:14;;;;;;;6.53;4.80;;;16.00;91.60;;;;;;5120028;28;20398;-87
2022/04/28 09:36:43;;;;;;;6.40;4.53;;;16.20;91.30;;;;;;5114217;28;20429;-86
2022/04/28 09:39:14;;;;;;;6.00;3.87;;;16.30;91.10;;;;;;5108135;28;20421;-84
2022/04/28 09:44:26;;;;;;;5.97;3.97;;;16.20;89.80;;;;;;5102901;28;20961;-86
2022/04/28 09:46:55;;;;;;;6.57;4.63;;;16.20;87.60;;;;;;5104336;28;20785;-86
2022/04/28 09:49:24;;;;;;;6.37;3.73;;;16.20;86.30;;;;;;5110732;28;20418;-86
2022/04/28 09:51:59;;;;;;;8.23;4.43;;;16.30;84.70;;;;;;5108694;28;20817;-86
2022/04/28 09:54:29;;;;;;;6.80;5.03;;;16.40;84.20;;;;;;5103722;28;20445;-86
2022/04/28 09:56:56;;;;;;;6.17;4.70;;;16.40;84.50;;;;;;5102943;28;20497;-86
2022/04/28 09:59:25;;;;;;;7.43;4.40;;;16.50;84.20;;;;;;5102660;28;20503;-85
2022/04/28 10:01:55;;;;;;;6.80;4.57;;;16.60;82.70;;;;;;5102596;28;20454;-85
2022/04/28 10:04:22;;;;;;;4.90;3.80;;;16.50;82.30;;;;;;5102929;28;20397;-85
2022/04/28 10:06:50;;;;;;;5.30;4.23;;;16.50;82.70;;;;;;5103636;28;20462;-86
2022/04/28 10:09:21;;;;;;;6.53;4.47;;;16.40;82.60;;;;;;5126557;22;20498;-87
2022/04/28 10:11:50;;;;;;;6.03;2.70;;;16.50;82.90;;;;;;5093781;28;20420;-85
2022/04/28 10:14:22;;;;;;;5.33;3.70;;;16.40;80.20;;;;;;5098925;28;20440;-86
2022/04/28 10:16:50;;;;;;;10.23;3.97;;;16.50;78.50;;;;;;5090731;28;20429;-88
2022/04/28 10:19:23;;;;;;;6.00;3.50;;;16.50;78.30;;;;;;5104720;28;20474;-87
2022/04/28 10:21:54;;;;;;;6.33;3.97;;;16.70;77.60;;;;;;5105305;28;20416;-86
2022/04/28 10:32:55;;;;;;;8.77;3.50;;;17.10;74.30;;;;;;5104938;28;20419;-87
2022/04/28 10:35:41;;;;;;;7.87;4.40;;;17.00;73.40;;;;;;5104000;28;20461;-86
2022/04/28 10:38:12;;;;;;;4.40;3.10;;;17.20;74.50;;;;;;5104428;28;20532;-86
2022/04/28 10:40:41;;;;;;;5.27;3.00;;;17.40;74.40;;;;;;5105011;28;20439;-89
2022/04/28 10:43:22;;;;;;;7.37;4.37;;;17.50;73.40;;;;;;5109845;28;20506;-89
2022/04/28 10:45:51;;;;;;;6.60;4.10;;;17.70;72.60;;;;;;5107464;28;20440;-86
2022/04/28 10:48:29;;;;;;;8.83;4.63;;;17.70;72.20;;;;;;5103886;28;20463;-88
2022/04/28 10:51:11;;;;;;;4.47;3.60;;;17.70;71.10;;;;;;5102650;28;20525;-88
2022/04/28 10:54:03;;;;;;;5.00;3.93;;;17.70;70.30;;;;;;5101805;28;20462;-86
2022/04/28 10:56:54;;;;;;;5.30;3.60;;;17.60;68.80;;;;;;5101534;28;20427;-87
2022/04/28 10:59:38;;;;;;;4.50;3.60;;;17.70;68.80;;;;;;5103293;28;21033;-86
2022/04/28 11:02:42;;;;;;;5.00;3.60;;;17.80;69.30;;;;;;5111569;28;20435;-87
2022/04/28 11:05:38;;;;;;;7.07;3.90;;;17.90;69.00;;;;;;5111512;28;20472;-87
2022/04/28 11:08:25;;;;;;;7.40;4.83;;;18.00;67.90;;;;;;5111506;28;20521;-87
2022/04/28 11:11:11;;;;;;;6.27;4.10;;;17.70;67.10;;;;;;5104876;28;20455;-86
2022/04/28 11:13:38;;;;;;;5.27;3.00;;;17.80;68.20;;;;;;5103492;28;20446;-87
2022/04/28 11:16:09;;;;;;;5.10;3.30;;;17.90;66.90;;;;;;5102810;28;20999;-86
2022/04/28 11:18:35;;;;;;;4.47;2.73;;;17.90;67.90;;;;;;5110085;28;20502;-86
2022/04/28 11:21:04;;;;;;;7.13;4.17;;;18.00;66.70;;;;;;5115761;28;20447;-86
2022/04/28 11:23:38;;;;;;;5.77;3.70;;;18.10;67.10;;;;;;5109298;28;21057;-87
2022/04/28 11:26:05;;;;;;;6.83;4.20;;;18.30;66.50;;;;;;5103356;28;20427;-86
2022/04/28 11:28:32;;;;;;;5.50;3.77;;;18.30;65.10;;;;;;5102818;28;20498;-87
2022/04/28 11:30:59;;;;;;;9.03;3.80;;;18.30;65.00;;;;;;5102006;28;20462;-87
2022/04/28 11:33:27;;;;;;;5.83;3.50;;;18.40;64.90;;;;;;5102838;28;20442;-86
2022/04/28 11:35:54;;;;;;;5.13;3.73;;;18.40;64.50;;;;;;5102139;28;20569;-85
2022/04/28 11:38:26;;;;;;;5.40;2.90;;;18.30;64.80;;;;;;5102346;28;20520;-85
2022/04/28 11:41:03;;;;;;;4.40;3.40;;;18.30;64.70;;;;;;5100810;28;20935;-84
2022/04/28 11:43:34;;;;;;;6.70;3.90;;;18.40;65.00;;;;;;5102086;28;20475;-83
2022/04/28 11:46:02;;;;;;;6.03;3.63;;;18.40;64.30;;;;;;5115483;28;20431;-84
2022/04/28 11:48:29;;;;;;;5.90;3.77;;;18.30;64.70;;;;;;5117083;28;20448;-85
2022/04/28 11:51:02;;;;;;;5.23;3.73;;;18.30;65.40;;;;;;5117417;28;20477;-87
2022/04/28 11:53:40;;;;;;;4.13;2.90;;;18.30;63.90;;;;;;5104591;28;20795;-86
2022/04/28 11:56:19;;;;;;;4.80;3.33;;;18.20;62.80;;;;;;5101347;28;20404;-86
2022/04/28 11:58:58;;;;;;;4.93;3.33;;;18.00;63.00;;;;;;5102617;28;20484;-85
2022/04/28 12:01:30;;;;;;;7.20;3.83;;;18.10;62.50;;;;;;5111111;28;20386;-85
2022/04/28 12:06:49;;;;;;;6.00;3.80;;;18.20;63.50;;;;;;5100728;28;20442;-87
2022/04/28 12:14:47;;;;;;;5.40;3.93;;;18.70;62.00;;;;;;5101343;28;20406;-87
2022/04/28 12:20:01;;;;;;;4.27;3.20;;;18.90;59.60;;;;;;5111321;28;20496;-88
2022/04/28 12:22:35;;;;;;;6.30;4.07;;;18.80;58.90;;;;;;5110376;28;20437;-85
2022/04/28 12:25:07;;;;;;;5.37;3.73;;;18.80;60.10;;;;;;5102241;28;20439;-89
2022/04/28 12:27:45;;;;;;;5.90;3.17;;;18.80;59.40;;;;;;5100330;28;20438;-86
2022/04/28 12:30:14;;;;;;;6.13;4.50;;;18.80;60.00;;;;;;5100570;28;20434;-85
2022/04/28 12:32:44;;;;;;;6.00;3.50;;;18.90;60.20;;;;;;5101237;28;20442;-87
2022/04/28 12:35:11;;;;;;;5.90;4.23;;;19.00;59.90;;;;;;5101268;28;20452;-86
2022/04/28 12:37:39;;;;;;;5.10;2.73;;;19.00;59.70;;;;;;5101742;28;20468;-88
2022/04/28 12:40:07;;;;;;;6.20;3.80;;;18.80;59.20;;;;;;5102454;28;20801;-86
2022/04/28 12:42:46;;;;;;;6.60;4.70;;;18.80;59.50;;;;;;5101910;28;20443;-86
2022/04/28 12:45:14;;;;;;;4.60;3.37;;;18.90;58.80;;;;;;5101650;28;20423;-87
2022/04/28 12:47:42;;;;;;;4.70;2.83;;;18.80;58.70;;;;;;5100567;28;20514;-87
2022/04/28 12:50:27;;;;;;;4.60;2.63;;;18.90;58.50;;;;;;5106245;28;20431;-86
2022/04/28 12:52:54;;;;;;;5.27;3.40;;;18.80;58.50;;;;;;5108209;28;20475;-87
2022/04/28 12:55:22;;;;;;;6.60;3.60;;;18.90;59.40;;;;;;5100691;28;20453;-84
2022/04/28 12:57:51;;;;;;;8.87;3.67;;;19.00;59.60;;;;;;5100048;28;21034;-87
2022/04/28 13:00:19;;;;;;;5.43;3.43;;;19.10;57.30;;;;;;5098500;28;20482;-87
2022/04/28 13:02:48;;;;;;;5.40;3.80;;;19.00;58.10;;;;;;5100325;28;20821;-86
2022/04/28 13:05:17;;;;;;;4.70;3.60;;;19.00;57.50;;;;;;5100247;28;20519;-88
2022/04/28 13:07:45;;;;;;;5.50;4.00;;;19.00;57.50;;;;;;5100270;28;20524;-87
2022/04/28 13:10:15;;;;;;;6.40;4.20;;;19.20;57.30;;;;;;5102017;28;20964;-85
2022/04/28 13:12:42;;;;;;;5.30;3.60;;;19.20;56.50;;;;;;5101712;28;20439;-86
2022/04/28 13:15:13;;;;;;;5.60;3.67;;;19.40;56.90;;;;;;5107086;28;20442;-87
2022/04/28 13:17:40;;;;;;;5.63;3.87;;;19.40;56.70;;;;;;5103095;28;20439;-88
2022/04/28 13:20:08;;;;;;;5.37;3.80;;;19.20;56.40;;;;;;5108127;28;20474;-86
2022/04/28 13:22:35;;;;;;;5.10;3.60;;;19.30;56.70;;;;;;5120753;28;20468;-85
2022/04/28 13:25:02;;;;;;;6.13;3.47;;;19.20;56.60;;;;;;5117351;28;20494;-87
2022/04/28 13:27:29;;;;;;;5.43;3.23;;;19.40;57.20;;;;;;5105926;28;20517;-86
2022/04/28 13:29:56;;;;;;;5.97;3.80;;;19.60;56.70;;;;;;5105243;28;20454;-87
2022/04/28 13:32:24;;;;;;;5.43;3.63;;;19.40;56.90;;;;;;5113496;28;20442;-87
2022/04/28 13:34:51;;;;;;;4.77;3.70;;;19.40;56.90;;;;;;5114988;28;20470;-88